sensor_id;sensor_type;location;lat;lon;timestamp;temperature;humidity
28175;SHT30;59417;44.788;10.334;2023-07-08T00:01:13;25.33;60.49
28175;SHT30;59417;44.788;10.334;2023-07-08T00:03:40;25.31;60.56
28175;SHT30;59417;44.788;10.334;2023-07-08T00:06:22;25.27;61.38
28175;SHT30;59417;44.788;10.334;2023-07-08T00:08:50;25.17;61.50
28175;SHT30;59417;44.788;10.334;2023-07-08T00:11:17;25.20;60.96
28175;SHT30;59417;44.788;10.334;2023-07-08T00:13:44;25.23;61.12
28175;SHT30;59417;44.788;10.334;2023-07-08T00:16:11;25.23;61.18
28175;SHT30;59417;44.788;10.334;2023-07-08T00:18:39;25.21;61.17
28175;SHT30;59417;44.788;10.334;2023-07-08T00:21:14;25.21;61.10
28175;SHT30;59417;44.788;10.334;2023-07-08T00:23:50;25.16;62.28
28175;SHT30;59417;44.788;10.334;2023-07-08T00:26:26;25.00;62.67
28175;SHT30;59417;44.788;10.334;2023-07-08T00:28:54;24.93;62.84
28175;SHT30;59417;44.788;10.334;2023-07-08T00:31:21;24.90;63.27
28175;SHT30;59417;44.788;10.334;2023-07-08T00:33:50;24.82;63.41
28175;SHT30;59417;44.788;10.334;2023-07-08T00:36:16;24.82;63.61
28175;SHT30;59417;44.788;10.334;2023-07-08T00:38:43;24.80;64.11
28175;SHT30;59417;44.788;10.334;2023-07-08T00:43:56;24.67;64.29
28175;SHT30;59417;44.788;10.334;2023-07-08T00:51:37;24.51;65.34
28175;SHT30;59417;44.788;10.334;2023-07-08T00:54:04;24.43;65.63
28175;SHT30;59417;44.788;10.334;2023-07-08T00:56:55;24.38;65.84
28175;SHT30;59417;44.788;10.334;2023-07-08T00:59:43;24.28;66.43
28175;SHT30;59417;44.788;10.334;2023-07-08T01:02:13;24.16;66.66
28175;SHT30;59417;44.788;10.334;2023-07-08T01:05:03;24.09;67.08
28175;SHT30;59417;44.788;10.334;2023-07-08T01:07:28;24.15;67.00
28175;SHT30;59417;44.788;10.334;2023-07-08T01:10:01;24.15;66.97
28175;SHT30;59417;44.788;10.334;2023-07-08T01:12:35;24.04;67.70
28175;SHT30;59417;44.788;10.334;2023-07-08T01:15:06;24.29;68.29
28175;SHT30;59417;44.788;10.334;2023-07-08T01:17:32;24.02;68.10
28175;SHT30;59417;44.788;10.334;2023-07-08T01:20:00;23.94;68.07
28175;SHT30;59417;44.788;10.334;2023-07-08T01:22:34;23.92;68.27
28175;SHT30;59417;44.788;10.334;2023-07-08T01:25:01;23.95;68.12
28175;SHT30;59417;44.788;10.334;2023-07-08T01:27:34;24.06;67.92
28175;SHT30;59417;44.788;10.334;2023-07-08T01:30:03;24.04;68.04
28175;SHT30;59417;44.788;10.334;2023-07-08T01:32:36;24.11;67.76
28175;SHT30;59417;44.788;10.334;2023-07-08T01:35:04;24.02;67.84
28175;SHT30;59417;44.788;10.334;2023-07-08T01:37:42;24.05;67.92
28175;SHT30;59417;44.788;10.334;2023-07-08T01:42:47;24.15;67.39
28175;SHT30;59417;44.788;10.334;2023-07-08T01:45:15;24.19;67.32
28175;SHT30;59417;44.788;10.334;2023-07-08T01:47:44;24.01;68.09
28175;SHT30;59417;44.788;10.334;2023-07-08T01:50:13;24.09;67.96
28175;SHT30;59417;44.788;10.334;2023-07-08T01:52:40;24.05;68.08
28175;SHT30;59417;44.788;10.334;2023-07-08T01:55:14;24.04;68.16
28175;SHT30;59417;44.788;10.334;2023-07-08T01:57:45;24.11;68.20
28175;SHT30;59417;44.788;10.334;2023-07-08T02:00:14;23.95;68.87
28175;SHT30;59417;44.788;10.334;2023-07-08T02:02:40;24.02;68.32
28175;SHT30;59417;44.788;10.334;2023-07-08T02:05:06;23.91;69.06
28175;SHT30;59417;44.788;10.334;2023-07-08T02:07:34;23.81;68.90
28175;SHT30;59417;44.788;10.334;2023-07-08T02:10:00;23.75;69.17
28175;SHT30;59417;44.788;10.334;2023-07-08T02:12:28;23.77;69.34
28175;SHT30;59417;44.788;10.334;2023-07-08T02:14:54;23.74;69.11
28175;SHT30;59417;44.788;10.334;2023-07-08T02:17:20;23.73;69.11
28175;SHT30;59417;44.788;10.334;2023-07-08T02:19:46;23.70;69.78
28175;SHT30;59417;44.788;10.334;2023-07-08T02:22:13;23.60;69.98
28175;SHT30;59417;44.788;10.334;2023-07-08T02:24:40;23.54;70.09
28175;SHT30;59417;44.788;10.334;2023-07-08T02:27:08;23.37;70.84
28175;SHT30;59417;44.788;10.334;2023-07-08T02:29:34;23.43;70.57
28175;SHT30;59417;44.788;10.334;2023-07-08T02:32:00;23.49;70.11
28175;SHT30;59417;44.788;10.334;2023-07-08T02:34:28;23.63;69.42
28175;SHT30;59417;44.788;10.334;2023-07-08T02:36:54;23.75;68.80
28175;SHT30;59417;44.788;10.334;2023-07-08T02:39:24;23.73;68.96
28175;SHT30;59417;44.788;10.334;2023-07-08T02:41:52;23.68;69.48
28175;SHT30;59417;44.788;10.334;2023-07-08T02:44:19;23.60;69.75
28175;SHT30;59417;44.788;10.334;2023-07-08T02:46:48;23.61;69.44
28175;SHT30;59417;44.788;10.334;2023-07-08T02:49:16;23.73;68.95
28175;SHT30;59417;44.788;10.334;2023-07-08T02:51:42;23.81;68.51
28175;SHT30;59417;44.788;10.334;2023-07-08T02:54:10;23.77;69.12
28175;SHT30;59417;44.788;10.334;2023-07-08T02:56:36;23.71;69.40
28175;SHT30;59417;44.788;10.334;2023-07-08T02:59:02;23.73;69.58
28175;SHT30;59417;44.788;10.334;2023-07-08T03:01:29;23.64;69.75
28175;SHT30;59417;44.788;10.334;2023-07-08T03:03:54;23.57;69.81
28175;SHT30;59417;44.788;10.334;2023-07-08T03:06:24;23.64;69.52
28175;SHT30;59417;44.788;10.334;2023-07-08T03:08:51;23.65;69.15
28175;SHT30;59417;44.788;10.334;2023-07-08T03:11:17;23.63;68.77
28175;SHT30;59417;44.788;10.334;2023-07-08T03:13:43;23.58;68.86
28175;SHT30;59417;44.788;10.334;2023-07-08T03:16:13;23.63;68.53
28175;SHT30;59417;44.788;10.334;2023-07-08T03:18:41;23.61;68.57
28175;SHT30;59417;44.788;10.334;2023-07-08T03:21:16;23.67;68.44
28175;SHT30;59417;44.788;10.334;2023-07-08T03:23:51;23.51;69.04
28175;SHT30;59417;44.788;10.334;2023-07-08T03:26:23;23.37;69.59
28175;SHT30;59417;44.788;10.334;2023-07-08T03:28:50;23.36;69.57
28175;SHT30;59417;44.788;10.334;2023-07-08T03:31:17;23.27;69.96
28175;SHT30;59417;44.788;10.334;2023-07-08T03:33:44;23.23;70.13
28175;SHT30;59417;44.788;10.334;2023-07-08T03:36:17;23.29;70.01
28175;SHT30;59417;44.788;10.334;2023-07-08T03:38:54;23.31;69.85
28175;SHT30;59417;44.788;10.334;2023-07-08T03:41:21;23.22;69.94
28175;SHT30;59417;44.788;10.334;2023-07-08T03:43:51;23.18;70.06
28175;SHT30;59417;44.788;10.334;2023-07-08T03:46:19;23.27;68.96
28175;SHT30;59417;44.788;10.334;2023-07-08T03:48:46;23.12;69.62
28175;SHT30;59417;44.788;10.334;2023-07-08T03:51:35;23.07;69.69
28175;SHT30;59417;44.788;10.334;2023-07-08T03:54:05;23.07;69.99
28175;SHT30;59417;44.788;10.334;2023-07-08T03:56:33;23.10;69.93
28175;SHT30;59417;44.788;10.334;2023-07-08T03:59:00;23.02;69.92
28175;SHT30;59417;44.788;10.334;2023-07-08T04:01:26;22.90;70.41
28175;SHT30;59417;44.788;10.334;2023-07-08T04:03:58;22.82;70.51
28175;SHT30;59417;44.788;10.334;2023-07-08T04:06:25;22.86;69.64
28175;SHT30;59417;44.788;10.334;2023-07-08T04:08:51;22.75;69.46
28175;SHT30;59417;44.788;10.334;2023-07-08T04:11:22;22.64;69.67
28175;SHT30;59417;44.788;10.334;2023-07-08T04:13:55;22.67;69.70
28175;SHT30;59417;44.788;10.334;2023-07-08T04:16:54;22.68;69.37
28175;SHT30;59417;44.788;10.334;2023-07-08T04:19:22;22.72;68.81
28175;SHT30;59417;44.788;10.334;2023-07-08T04:21:52;22.76;68.92
28175;SHT30;59417;44.788;10.334;2023-07-08T04:24:19;22.82;68.84
28175;SHT30;59417;44.788;10.334;2023-07-08T04:26:46;22.73;68.23
28175;SHT30;59417;44.788;10.334;2023-07-08T04:29:18;22.59;68.89
28175;SHT30;59417;44.788;10.334;2023-07-08T04:31:44;22.54;69.61
28175;SHT30;59417;44.788;10.334;2023-07-08T04:34:10;22.61;69.38
28175;SHT30;59417;44.788;10.334;2023-07-08T04:36:37;22.57;69.47
28175;SHT30;59417;44.788;10.334;2023-07-08T04:39:05;22.64;69.19
28175;SHT30;59417;44.788;10.334;2023-07-08T04:41:31;22.61;69.34
28175;SHT30;59417;44.788;10.334;2023-07-08T04:43:58;22.73;69.29
28175;SHT30;59417;44.788;10.334;2023-07-08T04:46:42;22.85;68.97
28175;SHT30;59417;44.788;10.334;2023-07-08T04:49:10;22.85;68.84
28175;SHT30;59417;44.788;10.334;2023-07-08T04:51:40;22.99;68.63
28175;SHT30;59417;44.788;10.334;2023-07-08T04:54:06;23.15;67.80
28175;SHT30;59417;44.788;10.334;2023-07-08T04:59:02;23.24;67.53
28175;SHT30;59417;44.788;10.334;2023-07-08T05:01:30;23.30;67.14
28175;SHT30;59417;44.788;10.334;2023-07-08T05:03:56;23.34;67.42
28175;SHT30;59417;44.788;10.334;2023-07-08T05:06:22;23.33;67.44
28175;SHT30;59417;44.788;10.334;2023-07-08T05:08:48;23.36;67.44
28175;SHT30;59417;44.788;10.334;2023-07-08T05:11:15;23.40;67.23
28175;SHT30;59417;44.788;10.334;2023-07-08T05:13:44;23.39;67.36
28175;SHT30;59417;44.788;10.334;2023-07-08T05:16:10;23.36;67.45
28175;SHT30;59417;44.788;10.334;2023-07-08T05:18:36;23.33;67.71
28175;SHT30;59417;44.788;10.334;2023-07-08T05:21:02;23.36;67.51
28175;SHT30;59417;44.788;10.334;2023-07-08T05:23:29;23.31;67.65
28175;SHT30;59417;44.788;10.334;2023-07-08T05:25:59;23.37;67.44
28175;SHT30;59417;44.788;10.334;2023-07-08T05:28:26;23.37;67.42
28175;SHT30;59417;44.788;10.334;2023-07-08T05:30:53;23.36;67.47
28175;SHT30;59417;44.788;10.334;2023-07-08T05:33:22;23.47;67.23
28175;SHT30;59417;44.788;10.334;2023-07-08T05:35:48;23.44;67.17
28175;SHT30;59417;44.788;10.334;2023-07-08T05:38:14;23.44;67.61
28175;SHT30;59417;44.788;10.334;2023-07-08T05:40:48;23.47;67.42
28175;SHT30;59417;44.788;10.334;2023-07-08T05:43:16;23.40;67.57
28175;SHT30;59417;44.788;10.334;2023-07-08T05:45:42;23.41;67.72
28175;SHT30;59417;44.788;10.334;2023-07-08T05:48:08;23.46;67.97
28175;SHT30;59417;44.788;10.334;2023-07-08T05:50:34;23.29;68.21
28175;SHT30;59417;44.788;10.334;2023-07-08T05:53:00;23.29;68.41
28175;SHT30;59417;44.788;10.334;2023-07-08T05:55:26;23.36;68.03
28175;SHT30;59417;44.788;10.334;2023-07-08T05:57:52;23.34;67.99
28175;SHT30;59417;44.788;10.334;2023-07-08T06:00:30;23.31;68.35
28175;SHT30;59417;44.788;10.334;2023-07-08T06:02:56;23.43;68.27
28175;SHT30;59417;44.788;10.334;2023-07-08T06:05:22;23.37;67.95
28175;SHT30;59417;44.788;10.334;2023-07-08T06:07:48;23.29;68.40
28175;SHT30;59417;44.788;10.334;2023-07-08T06:10:17;23.37;68.34
28175;SHT30;59417;44.788;10.334;2023-07-08T06:12:43;23.36;68.40
28175;SHT30;59417;44.788;10.334;2023-07-08T06:15:09;23.41;67.84
28175;SHT30;59417;44.788;10.334;2023-07-08T06:17:35;23.33;68.03
28175;SHT30;59417;44.788;10.334;2023-07-08T06:20:01;23.37;68.02
28175;SHT30;59417;44.788;10.334;2023-07-08T06:22:27;23.54;67.93
28175;SHT30;59417;44.788;10.334;2023-07-08T06:24:53;23.64;67.09
28175;SHT30;59417;44.788;10.334;2023-07-08T06:27:19;23.61;67.35
28175;SHT30;59417;44.788;10.334;2023-07-08T06:29:45;23.67;67.21
28175;SHT30;59417;44.788;10.334;2023-07-08T06:32:11;23.61;67.18
28175;SHT30;59417;44.788;10.334;2023-07-08T06:34:37;23.61;67.05
28175;SHT30;59417;44.788;10.334;2023-07-08T06:37:03;23.55;67.25
28175;SHT30;59417;44.788;10.334;2023-07-08T06:39:29;23.54;67.93
28175;SHT30;59417;44.788;10.334;2023-07-08T06:41:54;23.60;67.45
28175;SHT30;59417;44.788;10.334;2023-07-08T06:44:25;23.61;67.53
28175;SHT30;59417;44.788;10.334;2023-07-08T06:46:55;23.68;67.46
28175;SHT30;59417;44.788;10.334;2023-07-08T06:49:21;23.87;67.50
28175;SHT30;59417;44.788;10.334;2023-07-08T06:51:47;24.08;67.30
28175;SHT30;59417;44.788;10.334;2023-07-08T06:54:14;24.00;67.04
28175;SHT30;59417;44.788;10.334;2023-07-08T06:56:41;23.92;67.05
28175;SHT30;59417;44.788;10.334;2023-07-08T06:59:08;23.91;67.51
28175;SHT30;59417;44.788;10.334;2023-07-08T07:01:35;24.02;67.25
28175;SHT30;59417;44.788;10.334;2023-07-08T07:04:02;24.04;67.03
28175;SHT30;59417;44.788;10.334;2023-07-08T07:06:29;24.11;67.22
28175;SHT30;59417;44.788;10.334;2023-07-08T07:08:55;24.24;66.89
28175;SHT30;59417;44.788;10.334;2023-07-08T07:11:21;24.41;67.23
28175;SHT30;59417;44.788;10.334;2023-07-08T07:13:58;24.42;66.33
28175;SHT30;59417;44.788;10.334;2023-07-08T07:16:25;24.32;66.80
28175;SHT30;59417;44.788;10.334;2023-07-08T07:18:51;24.28;67.02
28175;SHT30;59417;44.788;10.334;2023-07-08T07:21:18;24.36;66.99
28175;SHT30;59417;44.788;10.334;2023-07-08T07:23:44;24.32;66.83
28175;SHT30;59417;44.788;10.334;2023-07-08T07:26:10;24.51;67.03
28175;SHT30;59417;44.788;10.334;2023-07-08T07:28:36;24.49;66.91
28175;SHT30;59417;44.788;10.334;2023-07-08T07:31:03;24.56;66.73
28175;SHT30;59417;44.788;10.334;2023-07-08T07:33:31;24.62;67.00
28175;SHT30;59417;44.788;10.334;2023-07-08T07:35:58;24.76;67.07
28175;SHT30;59417;44.788;10.334;2023-07-08T07:38:24;24.83;66.00
28175;SHT30;59417;44.788;10.334;2023-07-08T07:40:56;24.86;65.44
28175;SHT30;59417;44.788;10.334;2023-07-08T07:43:25;25.00;66.03
28175;SHT30;59417;44.788;10.334;2023-07-08T07:45:52;25.06;65.84
28175;SHT30;59417;44.788;10.334;2023-07-08T07:48:20;25.08;66.57
28175;SHT30;59417;44.788;10.334;2023-07-08T07:50:47;25.13;66.12
28175;SHT30;59417;44.788;10.334;2023-07-08T07:53:14;25.38;64.70
28175;SHT30;59417;44.788;10.334;2023-07-08T07:55:40;25.30;65.50
28175;SHT30;59417;44.788;10.334;2023-07-08T07:58:06;25.37;65.27
28175;SHT30;59417;44.788;10.334;2023-07-08T08:00:33;25.51;65.04
28175;SHT30;59417;44.788;10.334;2023-07-08T08:02:59;25.65;64.76
28175;SHT30;59417;44.788;10.334;2023-07-08T08:05:28;25.74;64.45
28175;SHT30;59417;44.788;10.334;2023-07-08T08:07:55;25.85;64.11
28175;SHT30;59417;44.788;10.334;2023-07-08T08:10:21;25.99;63.31
28175;SHT30;59417;44.788;10.334;2023-07-08T08:12:50;26.15;60.53
28175;SHT30;59417;44.788;10.334;2023-07-08T08:15:23;25.92;61.52
28175;SHT30;59417;44.788;10.334;2023-07-08T08:17:49;25.92;62.29
28175;SHT30;59417;44.788;10.334;2023-07-08T08:20:19;25.98;62.41
28175;SHT30;59417;44.788;10.334;2023-07-08T08:22:46;26.12;61.71
28175;SHT30;59417;44.788;10.334;2023-07-08T08:25:15;26.22;62.18
28175;SHT30;59417;44.788;10.334;2023-07-08T08:27:46;26.30;61.57
28175;SHT30;59417;44.788;10.334;2023-07-08T08:30:16;26.49;59.36
28175;SHT30;59417;44.788;10.334;2023-07-08T08:32:46;26.40;59.89
28175;SHT30;59417;44.788;10.334;2023-07-08T08:35:15;26.49;60.06
28175;SHT30;59417;44.788;10.334;2023-07-08T08:37:59;26.50;58.51
28175;SHT30;59417;44.788;10.334;2023-07-08T08:40:27;26.67;58.45
28175;SHT30;59417;44.788;10.334;2023-07-08T08:43:00;26.57;59.68
28175;SHT30;59417;44.788;10.334;2023-07-08T08:45:29;26.60;59.64
28175;SHT30;59417;44.788;10.334;2023-07-08T08:48:03;26.63;59.48
28175;SHT30;59417;44.788;10.334;2023-07-08T08:50:41;26.76;58.72
28175;SHT30;59417;44.788;10.334;2023-07-08T08:53:13;26.88;58.83
28175;SHT30;59417;44.788;10.334;2023-07-08T08:56:13;27.01;58.35
28175;SHT30;59417;44.788;10.334;2023-07-08T08:59:34;27.14;58.67
28175;SHT30;59417;44.788;10.334;2023-07-08T09:01:31;27.31;58.56
28175;SHT30;59417;44.788;10.334;2023-07-08T09:06:39;27.32;57.89
28175;SHT30;59417;44.788;10.334;2023-07-08T09:09:38;27.38;55.76
28175;SHT30;59417;44.788;10.334;2023-07-08T09:12:27;27.38;56.79
28175;SHT30;59417;44.788;10.334;2023-07-08T09:14:53;27.44;56.24
28175;SHT30;59417;44.788;10.334;2023-07-08T09:17:32;27.51;55.09
28175;SHT30;59417;44.788;10.334;2023-07-08T09:22:40;27.62;55.38
28175;SHT30;59417;44.788;10.334;2023-07-08T09:27:46;27.72;53.62
28175;SHT30;59417;44.788;10.334;2023-07-08T09:30:17;27.79;54.29
28175;SHT30;59417;44.788;10.334;2023-07-08T09:32:48;27.85;53.10
28175;SHT30;59417;44.788;10.334;2023-07-08T09:35:29;27.96;53.43
28175;SHT30;59417;44.788;10.334;2023-07-08T09:38:13;28.09;52.69
28175;SHT30;59417;44.788;10.334;2023-07-08T09:40:48;28.00;52.92
28175;SHT30;59417;44.788;10.334;2023-07-08T09:43:37;28.03;53.47
28175;SHT30;59417;44.788;10.334;2023-07-08T09:46:04;28.10;50.64
28175;SHT30;59417;44.788;10.334;2023-07-08T09:48:35;28.14;51.01
28175;SHT30;59417;44.788;10.334;2023-07-08T09:51:03;28.20;52.38
28175;SHT30;59417;44.788;10.334;2023-07-08T09:53:29;28.27;51.86
28175;SHT30;59417;44.788;10.334;2023-07-08T09:56:00;28.38;51.12
28175;SHT30;59417;44.788;10.334;2023-07-08T09:58:34;28.40;51.18
28175;SHT30;59417;44.788;10.334;2023-07-08T10:01:17;28.51;50.32
28175;SHT30;59417;44.788;10.334;2023-07-08T10:03:46;28.54;49.79
28175;SHT30;59417;44.788;10.334;2023-07-08T10:06:28;28.55;49.36
28175;SHT30;59417;44.788;10.334;2023-07-08T10:09:25;28.60;49.81
28175;SHT30;59417;44.788;10.334;2023-07-08T10:12:05;28.61;49.77
28175;SHT30;59417;44.788;10.334;2023-07-08T10:14:52;28.77;49.93
28175;SHT30;59417;44.788;10.334;2023-07-08T10:17:23;28.88;50.20
28175;SHT30;59417;44.788;10.334;2023-07-08T10:19:49;28.95;49.72
28175;SHT30;59417;44.788;10.334;2023-07-08T10:25:23;28.94;49.41
28175;SHT30;59417;44.788;10.334;2023-07-08T10:28:16;29.00;47.32
28175;SHT30;59417;44.788;10.334;2023-07-08T10:31:10;29.00;48.37
28175;SHT30;59417;44.788;10.334;2023-07-08T10:34:23;29.05;48.03
28175;SHT30;59417;44.788;10.334;2023-07-08T10:37:12;29.15;48.44
28175;SHT30;59417;44.788;10.334;2023-07-08T10:45:58;29.39;47.74
28175;SHT30;59417;44.788;10.334;2023-07-08T11:05:34;29.81;45.33
28175;SHT30;59417;44.788;10.334;2023-07-08T11:12:00;30.04;46.03
28175;SHT30;59417;44.788;10.334;2023-07-08T11:15:13;30.12;44.64
28175;SHT30;59417;44.788;10.334;2023-07-08T11:18:04;30.11;45.29
28175;SHT30;59417;44.788;10.334;2023-07-08T11:23:19;30.17;45.26
28175;SHT30;59417;44.788;10.334;2023-07-08T11:25:48;30.28;45.93
28175;SHT30;59417;44.788;10.334;2023-07-08T11:28:19;30.35;44.03
28175;SHT30;59417;44.788;10.334;2023-07-08T11:30:49;30.39;46.52
28175;SHT30;59417;44.788;10.334;2023-07-08T11:33:17;30.58;47.05
28175;SHT30;59417;44.788;10.334;2023-07-08T11:35:49;30.56;46.31
28175;SHT30;59417;44.788;10.334;2023-07-08T11:38:19;30.69;46.72
28175;SHT30;59417;44.788;10.334;2023-07-08T11:43:25;30.83;46.44
28175;SHT30;59417;44.788;10.334;2023-07-08T11:45:55;30.93;45.78
28175;SHT30;59417;44.788;10.334;2023-07-08T11:48:25;31.05;44.90
28175;SHT30;59417;44.788;10.334;2023-07-08T11:50:54;31.13;45.29
28175;SHT30;59417;44.788;10.334;2023-07-08T11:55:59;31.29;43.22
28175;SHT30;59417;44.788;10.334;2023-07-08T11:58:26;31.30;45.90
28175;SHT30;59417;44.788;10.334;2023-07-08T12:03:47;31.48;45.29
28175;SHT30;59417;44.788;10.334;2023-07-08T12:09:27;31.60;43.22
28175;SHT30;59417;44.788;10.334;2023-07-08T12:11:55;31.58;42.40
28175;SHT30;59417;44.788;10.334;2023-07-08T12:14:23;31.50;43.00
28175;SHT30;59417;44.788;10.334;2023-07-08T12:16:51;31.57;44.14
28175;SHT30;59417;44.788;10.334;2023-07-08T12:19:20;31.60;42.19
28175;SHT30;59417;44.788;10.334;2023-07-08T12:21:52;31.74;43.09
28175;SHT30;59417;44.788;10.334;2023-07-08T12:24:18;31.84;42.22
28175;SHT30;59417;44.788;10.334;2023-07-08T12:26:50;31.89;41.50
28175;SHT30;59417;44.788;10.334;2023-07-08T12:29:31;31.88;39.92
28175;SHT30;59417;44.788;10.334;2023-07-08T12:32:00;31.76;39.44
28175;SHT30;59417;44.788;10.334;2023-07-08T12:34:26;31.78;41.18
28175;SHT30;59417;44.788;10.334;2023-07-08T12:36:53;31.92;41.33
28175;SHT30;59417;44.788;10.334;2023-07-08T12:39:19;32.02;41.68
28175;SHT30;59417;44.788;10.334;2023-07-08T12:41:46;32.02;41.31
28175;SHT30;59417;44.788;10.334;2023-07-08T12:44:22;32.04;42.01
28175;SHT30;59417;44.788;10.334;2023-07-08T12:46:49;32.01;40.47
28175;SHT30;59417;44.788;10.334;2023-07-08T12:49:18;32.04;39.88
28175;SHT30;59417;44.788;10.334;2023-07-08T12:51:46;32.18;41.83
28175;SHT30;59417;44.788;10.334;2023-07-08T12:54:13;32.24;41.30
28175;SHT30;59417;44.788;10.334;2023-07-08T12:56:53;32.39;40.10
28175;SHT30;59417;44.788;10.334;2023-07-08T12:59:22;32.21;38.35
28175;SHT30;59417;44.788;10.334;2023-07-08T13:01:58;32.24;40.14
28175;SHT30;59417;44.788;10.334;2023-07-08T13:04:26;32.33;40.59
28175;SHT30;59417;44.788;10.334;2023-07-08T13:06:54;32.39;41.02
28175;SHT30;59417;44.788;10.334;2023-07-08T13:09:36;32.46;41.23
28175;SHT30;59417;44.788;10.334;2023-07-08T13:12:33;32.58;40.95
28175;SHT30;59417;44.788;10.334;2023-07-08T13:15:39;32.65;38.44
28175;SHT30;59417;44.788;10.334;2023-07-08T13:18:26;32.69;39.23
28175;SHT30;59417;44.788;10.334;2023-07-08T13:20:57;32.75;39.83
28175;SHT30;59417;44.788;10.334;2023-07-08T13:23:35;32.55;37.92
28175;SHT30;59417;44.788;10.334;2023-07-08T13:26:20;32.43;38.44
28175;SHT30;59417;44.788;10.334;2023-07-08T13:28:48;32.43;39.23
28175;SHT30;59417;44.788;10.334;2023-07-08T13:31:32;32.48;38.09
28175;SHT30;59417;44.788;10.334;2023-07-08T13:34:29;32.48;37.70
28175;SHT30;59417;44.788;10.334;2023-07-08T13:41:41;32.52;40.22
28175;SHT30;59417;44.788;10.334;2023-07-08T13:45:24;32.62;39.33
28175;SHT30;59417;44.788;10.334;2023-07-08T13:48:37;32.68;38.78
28175;SHT30;59417;44.788;10.334;2023-07-08T13:51:09;32.65;39.42
28175;SHT30;59417;44.788;10.334;2023-07-08T13:56:21;32.43;38.62
28175;SHT30;59417;44.788;10.334;2023-07-08T13:59:26;32.49;38.93
28175;SHT30;59417;44.788;10.334;2023-07-08T14:01:57;32.45;39.77
28175;SHT30;59417;44.788;10.334;2023-07-08T14:04:33;32.32;39.34
28175;SHT30;59417;44.788;10.334;2023-07-08T14:06:59;32.28;40.23
28175;SHT30;59417;44.788;10.334;2023-07-08T14:09:27;32.29;40.31
28175;SHT30;59417;44.788;10.334;2023-07-08T14:11:53;32.24;40.36
28175;SHT30;59417;44.788;10.334;2023-07-08T14:14:20;32.36;39.80
28175;SHT30;59417;44.788;10.334;2023-07-08T14:16:51;32.40;39.79
28175;SHT30;59417;44.788;10.334;2023-07-08T14:19:29;32.45;40.89
28175;SHT30;59417;44.788;10.334;2023-07-08T14:21:57;32.42;40.32
28175;SHT30;59417;44.788;10.334;2023-07-08T14:24:24;32.38;39.71
28175;SHT30;59417;44.788;10.334;2023-07-08T14:26:52;32.24;38.46
28175;SHT30;59417;44.788;10.334;2023-07-08T14:29:21;32.24;39.69
28175;SHT30;59417;44.788;10.334;2023-07-08T14:31:47;32.27;38.77
28175;SHT30;59417;44.788;10.334;2023-07-08T14:34:25;32.22;39.71
28175;SHT30;59417;44.788;10.334;2023-07-08T14:36:52;32.24;39.47
28175;SHT30;59417;44.788;10.334;2023-07-08T14:39:18;32.27;39.57
28175;SHT30;59417;44.788;10.334;2023-07-08T14:41:48;32.35;40.77
28175;SHT30;59417;44.788;10.334;2023-07-08T14:44:22;32.29;40.57
28175;SHT30;59417;44.788;10.334;2023-07-08T14:46:54;32.43;40.26
28175;SHT30;59417;44.788;10.334;2023-07-08T14:49:23;32.38;40.38
28175;SHT30;59417;44.788;10.334;2023-07-08T14:51:50;32.42;40.76
28175;SHT30;59417;44.788;10.334;2023-07-08T14:54:18;32.36;40.67
28175;SHT30;59417;44.788;10.334;2023-07-08T14:56:47;32.33;40.06
28175;SHT30;59417;44.788;10.334;2023-07-08T14:59:16;32.29;41.01
28175;SHT30;59417;44.788;10.334;2023-07-08T15:01:58;32.22;40.72
28175;SHT30;59417;44.788;10.334;2023-07-08T15:08:21;31.97;39.84
28175;SHT30;59417;44.788;10.334;2023-07-08T15:11:32;32.18;38.40
28175;SHT30;59417;44.788;10.334;2023-07-08T15:14:23;32.29;39.32
28175;SHT30;59417;44.788;10.334;2023-07-08T15:16:50;32.22;39.37
28175;SHT30;59417;44.788;10.334;2023-07-08T15:19:18;32.25;39.58
28175;SHT30;59417;44.788;10.334;2023-07-08T15:21:45;32.24;40.46
28175;SHT30;59417;44.788;10.334;2023-07-08T15:24:14;32.25;40.65
28175;SHT30;59417;44.788;10.334;2023-07-08T15:27:13;32.29;39.25
28175;SHT30;59417;44.788;10.334;2023-07-08T15:29:39;32.25;39.41
28175;SHT30;59417;44.788;10.334;2023-07-08T15:32:12;32.22;39.55
28175;SHT30;59417;44.788;10.334;2023-07-08T15:34:48;32.31;39.79
28175;SHT30;59417;44.788;10.334;2023-07-08T15:37:29;32.39;39.63
28175;SHT30;59417;44.788;10.334;2023-07-08T15:48:14;32.55;40.49
28175;SHT30;59417;44.788;10.334;2023-07-08T15:50:43;32.49;40.49
28175;SHT30;59417;44.788;10.334;2023-07-08T15:53:09;32.38;39.07
28175;SHT30;59417;44.788;10.334;2023-07-08T15:55:42;32.31;39.29
28175;SHT30;59417;44.788;10.334;2023-07-08T15:58:24;32.25;39.18
28175;SHT30;59417;44.788;10.334;2023-07-08T16:00:51;32.25;38.81
28175;SHT30;59417;44.788;10.334;2023-07-08T16:03:27;32.27;40.66
28175;SHT30;59417;44.788;10.334;2023-07-08T16:06:04;32.22;39.58
28175;SHT30;59417;44.788;10.334;2023-07-08T16:08:29;32.29;39.95
28175;SHT30;59417;44.788;10.334;2023-07-08T16:15:08;32.22;40.40
28175;SHT30;59417;44.788;10.334;2023-07-08T16:17:38;32.39;38.92
28175;SHT30;59417;44.788;10.334;2023-07-08T16:20:35;32.48;39.70
28175;SHT30;59417;44.788;10.334;2023-07-08T16:23:51;32.40;39.95
28175;SHT30;59417;44.788;10.334;2023-07-08T16:26:23;32.28;40.73
28175;SHT30;59417;44.788;10.334;2023-07-08T16:29:27;32.19;39.95
28175;SHT30;59417;44.788;10.334;2023-07-08T16:31:53;32.17;41.28
28175;SHT30;59417;44.788;10.334;2023-07-08T16:34:18;32.09;41.23
28175;SHT30;59417;44.788;10.334;2023-07-08T16:36:44;32.01;42.47
28175;SHT30;59417;44.788;10.334;2023-07-08T16:39:10;32.19;40.95
28175;SHT30;59417;44.788;10.334;2023-07-08T16:41:37;32.11;40.85
28175;SHT30;59417;44.788;10.334;2023-07-08T16:44:15;31.94;40.92
28175;SHT30;59417;44.788;10.334;2023-07-08T16:46:42;31.77;41.16
28175;SHT30;59417;44.788;10.334;2023-07-08T16:49:11;31.78;40.23
28175;SHT30;59417;44.788;10.334;2023-07-08T16:51:38;31.87;39.35
28175;SHT30;59417;44.788;10.334;2023-07-08T16:54:13;31.70;40.78
28175;SHT30;59417;44.788;10.334;2023-07-08T16:56:40;31.56;41.45
28175;SHT30;59417;44.788;10.334;2023-07-08T16:59:07;31.46;42.53
28175;SHT30;59417;44.788;10.334;2023-07-08T17:01:33;31.37;42.65
28175;SHT30;59417;44.788;10.334;2023-07-08T17:03:59;31.24;42.23
28175;SHT30;59417;44.788;10.334;2023-07-08T17:06:25;31.22;42.53
28175;SHT30;59417;44.788;10.334;2023-07-08T17:08:51;31.16;42.63
28175;SHT30;59417;44.788;10.334;2023-07-08T17:11:17;31.16;43.62